Time;durP1;ratioP1;P1;durP2;ratioP2;P2;SDS_P1;SDS_P2;PMS_P1;PMS_P2;Temp;Humidity;BMP_temperature;BMP_pressure;BME280_temperature;BME280_humidity;BME280_pressure;Samples;Min_cycle;Max_cycle;Signal;HPM_P1;HPM_P2
2021/09/07 00:03:51;;;;;;;36.15;23.83;;;;;;;15.26;81.30;102368.47;10111546;28;20133;-68
2021/09/07 00:08:47;;;;;;;31.05;20.52;;;;;;;15.28;81.15;102363.47;10102106;28;20102;-68
2021/09/07 00:13:44;;;;;;;31.80;20.77;;;;;;;15.26;81.58;102363.78;10095938;28;20106;-68
2021/09/07 00:18:41;;;;;;;28.63;19.60;;;;;;;15.26;81.20;102366.53;10108353;28;20620;-68
2021/09/07 00:23:37;;;;;;;29.75;19.75;;;;;;;15.26;81.33;102366.53;10107591;28;20142;-68
2021/09/07 00:28:34;;;;;;;31.27;20.65;;;;;;;15.25;81.80;102364.91;10103650;28;20077;-69
2021/09/07 00:33:30;;;;;;;33.30;20.70;;;;;;;15.18;81.89;102353.50;10109148;28;20419;-68
2021/09/07 00:38:27;;;;;;;31.52;20.83;;;;;;;15.21;81.83;102352.88;10105095;28;20114;-69
2021/09/07 00:43:23;;;;;;;35.00;21.35;;;;;;;15.23;81.79;102358.91;10103686;28;20113;-69
2021/09/07 00:48:20;;;;;;;30.17;20.33;;;;;;;15.23;81.85;102345.13;10103678;28;20090;-69
2021/09/07 00:53:16;;;;;;;28.60;20.52;;;;;;;15.22;81.56;102346.22;10089945;28;20134;-69
2021/09/07 00:58:16;;;;;;;33.10;20.55;;;;;;;15.20;82.00;102340.25;10088888;28;20133;-68
2021/09/07 01:03:12;;;;;;;34.25;22.98;;;;;;;15.26;81.38;102340.91;10100395;28;20488;-68
2021/09/07 01:08:09;;;;;;;32.30;21.25;;;;;;;15.21;81.50;102336.34;10093839;28;20062;-68
2021/09/07 01:13:05;;;;;;;32.50;21.95;;;;;;;15.20;81.91;102340.25;10091523;28;20118;-68
2021/09/07 01:18:02;;;;;;;32.50;20.45;;;;;;;15.18;82.10;102345.25;10103139;28;20042;-69
2021/09/07 01:22:59;;;;;;;29.83;21.27;;;;;;;15.15;82.42;102343.09;10102434;28;20043;-69
2021/09/07 01:27:55;;;;;;;29.77;20.30;;;;;;;15.14;82.19;102342.28;10101254;28;20125;-69
2021/09/07 01:32:52;;;;;;;30.52;21.27;;;;;;;15.12;82.54;102338.19;10096441;28;20043;-69
2021/09/07 01:37:48;;;;;;;31.90;21.70;;;;;;;15.11;82.31;102331.88;10102166;28;20074;-67
2021/09/07 01:42:45;;;;;;;35.35;23.38;;;;;;;15.03;82.50;102329.84;10101469;28;20074;-68
2021/09/07 01:47:41;;;;;;;36.72;22.25;;;;;;;14.93;83.14;102341.91;10097238;28;20035;-68
2021/09/07 01:52:38;;;;;;;36.85;21.58;;;;;;;14.97;83.07;102341.28;10103122;28;20054;-68
2021/09/07 01:57:35;;;;;;;29.80;19.77;;;;;;;14.93;82.96;102352.09;10091324;28;20122;-68
2021/09/07 02:02:31;;;;;;;31.13;22.20;;;;;;;14.72;83.16;102357.22;10097942;28;20845;-70
2021/09/07 02:07:28;;;;;;;32.78;21.23;;;;;;;14.84;82.99;102349.25;10102542;28;20049;-69
2021/09/07 02:12:25;;;;;;;31.35;20.63;;;;;;;14.77;83.42;102354.34;10105260;28;20093;-68
2021/09/07 02:17:24;;;;;;;31.92;21.92;;;;;;;14.72;83.39;102351.72;10113530;28;20078;-68
2021/09/07 02:22:21;;;;;;;31.92;21.63;;;;;;;14.69;83.38;102353.16;10104924;28;20456;-69
2021/09/07 02:27:18;;;;;;;29.40;20.20;;;;;;;14.67;83.60;102365.59;10106850;28;20460;-67
2021/09/07 02:32:15;;;;;;;39.70;23.02;;;;;;;14.61;83.54;102362.09;10104688;28;20043;-68
2021/09/07 02:37:11;;;;;;;34.90;23.45;;;;;;;14.60;84.07;102354.97;10103349;28;20050;-67
2021/09/07 02:42:08;;;;;;;38.80;24.63;;;;;;;14.48;84.27;102336.19;10094936;28;20050;-68
2021/09/07 02:47:05;;;;;;;32.22;23.15;;;;;;;14.41;84.65;102338.53;10100932;28;20113;-69
2021/09/07 02:52:02;;;;;;;32.63;21.23;;;;;;;14.40;84.92;102334.13;10108001;28;20043;-69
2021/09/07 02:56:59;;;;;;;28.10;21.00;;;;;;;14.38;84.34;102335.56;10104410;28;20426;-68
2021/09/07 03:01:55;;;;;;;29.67;20.95;;;;;;;14.38;84.18;102324.53;10105193;28;20129;-68
2021/09/07 03:06:52;;;;;;;33.55;21.25;;;;;;;14.32;83.79;102327.41;10102708;28;20459;-67
2021/09/07 03:11:49;;;;;;;31.42;21.08;;;;;;;14.32;83.46;102337.59;10104693;28;20046;-69
2021/09/07 03:16:45;;;;;;;31.33;21.52;;;;;;;14.25;83.46;102343.50;10098939;28;20047;-69
2021/09/07 03:21:42;;;;;;;30.25;22.30;;;;;;;14.20;83.34;102345.50;10097853;28;20047;-69
2021/09/07 03:26:39;;;;;;;29.55;20.35;;;;;;;14.16;83.38;102344.50;10094552;28;20451;-69
2021/09/07 03:31:36;;;;;;;33.65;21.55;;;;;;;14.12;83.32;102343.47;10096509;28;20486;-69
2021/09/07 03:36:33;;;;;;;32.55;21.27;;;;;;;14.07;83.56;102336.94;10101246;28;20154;-68
2021/09/07 03:41:29;;;;;;;25.80;18.90;;;;;;;14.02;83.00;102336.22;10095527;28;20114;-70
2021/09/07 03:46:25;;;;;;;31.92;21.13;;;;;;;13.98;83.24;102338.75;10105672;28;20562;-67
2021/09/07 03:51:22;;;;;;;32.50;20.80;;;;;;;13.93;83.65;102347.09;10109470;28;20462;-68
2021/09/07 03:56:19;;;;;;;30.83;20.58;;;;;;;13.89;83.73;102346.03;10109773;28;20089;-70
2021/09/07 04:01:15;;;;;;;28.55;20.98;;;;;;;13.87;83.26;102334.53;10097832;28;20071;-70
2021/09/07 04:06:12;;;;;;;31.52;21.95;;;;;;;13.85;83.30;102350.50;10100125;28;20065;-69
2021/09/07 04:11:09;;;;;;;34.38;22.13;;;;;;;13.83;83.47;102363.72;10097598;28;20075;-69
2021/09/07 04:16:05;;;;;;;36.22;22.65;;;;;;;13.79;84.09;102370.97;10087637;28;20126;-69
2021/09/07 04:21:02;;;;;;;32.55;21.95;;;;;;;13.78;84.09;102372.06;10093894;28;20102;-69
2021/09/07 04:25:58;;;;;;;34.60;23.20;;;;;;;13.79;84.55;102370.97;10093733;28;20077;-69
2021/09/07 04:30:55;;;;;;;33.50;23.02;;;;;;;13.81;85.04;102371.50;10097366;28;20550;-71
2021/09/07 04:35:52;;;;;;;36.72;24.90;;;;;;;13.84;84.96;102365.38;10111354;28;20125;-70
2021/09/07 04:40:48;;;;;;;35.72;25.60;;;;;;;13.75;85.32;102372.69;10114361;28;20055;-69
2021/09/07 04:45:45;;;;;;;32.92;23.35;;;;;;;13.75;84.82;102372.69;10113111;28;20525;-70
2021/09/07 04:50:42;;;;;;;36.33;23.25;;;;;;;13.71;84.66;102371.63;10109617;28;20597;-71
2021/09/07 04:55:38;;;;;;;32.15;23.67;;;;;;;13.66;84.56;102365.09;10104670;28;20054;-70
2021/09/07 05:00:40;;;;;;;33.05;22.92;;;;;;;13.66;84.46;102378.84;10099464;28;20133;-69
2021/09/07 05:05:37;;;;;;;32.53;22.67;;;;;;;13.64;84.18;102375.56;10103974;28;20183;-69
2021/09/07 05:10:33;;;;;;;33.67;23.30;;;;;;;13.61;84.07;102386.34;10100998;28;20550;-69
2021/09/07 05:15:30;;;;;;;34.17;23.10;;;;;;;13.60;84.17;102390.19;10090209;28;20081;-69
2021/09/07 05:20:26;;;;;;;35.42;24.10;;;;;;;13.60;84.29;102388.28;10085030;28;20051;-69
2021/09/07 05:25:23;;;;;;;35.03;23.33;;;;;;;13.60;84.21;102387.44;10088358;28;20130;-69
2021/09/07 05:30:19;;;;;;;31.80;22.25;;;;;;;13.63;84.51;102393.19;10090481;28;20495;-69
2021/09/07 05:35:16;;;;;;;31.60;21.98;;;;;;;13.67;84.72;102399.72;10083934;28;20138;-69
2021/09/07 05:40:14;;;;;;;35.92;24.42;;;;;;;13.68;84.43;102401.34;10082483;28;20079;-69
2021/09/07 05:45:13;;;;;;;35.95;23.35;;;;;;;13.70;84.79;102403.81;10083815;28;20091;-69
2021/09/07 05:50:10;;;;;;;31.08;23.73;;;;;;;13.75;84.97;102394.66;10091450;28;20047;-69
2021/09/07 05:55:09;;;;;;;30.48;22.33;;;;;;;13.80;85.19;102394.59;10086910;28;20098;-70
2021/09/07 06:00:08;;;;;;;27.40;20.50;;;;;;;13.87;85.40;102395.00;10100974;28;20046;-70
2021/09/07 06:05:07;;;;;;;35.97;21.50;;;;;;;13.97;85.22;102402.28;10101515;28;20051;-69
2021/09/07 06:10:04;;;;;;;33.33;22.02;;;;;;;14.04;85.74;102414.56;10082627;28;20074;-70
2021/09/07 06:15:02;;;;;;;39.33;22.98;;;;;;;14.04;86.08;102409.06;10074912;28;20066;-70
2021/09/07 06:19:58;;;;;;;34.58;23.13;;;;;;;14.13;85.23;102405.59;10074362;28;20129;-70
2021/09/07 06:24:55;;;;;;;34.97;22.30;;;;;;;14.24;85.30;102401.56;10076221;28;20083;-70
2021/09/07 06:29:52;;;;;;;30.35;19.75;;;;;;;14.30;85.29;102403.13;10063330;28;20523;-69
2021/09/07 06:34:48;;;;;;;30.08;17.98;;;;;;;14.38;84.80;102413.41;10058611;28;20079;-70
2021/09/07 06:39:45;;;;;;;27.13;18.30;;;;;;;14.43;84.41;102410.56;10051316;28;20105;-69
2021/09/07 06:44:41;;;;;;;28.33;17.23;;;;;;;14.45;84.77;102411.06;10060222;28;20054;-69
2021/09/07 06:49:38;;;;;;;20.40;14.65;;;;;;;14.48;84.56;102406.91;10068007;28;20614;-69
2021/09/07 06:54:34;;;;;;;25.42;15.52;;;;;;;14.59;84.04;102410.31;10062315;28;20058;-69
2021/09/07 06:59:31;;;;;;;24.65;14.93;;;;;;;14.75;83.86;102410.84;10077204;28;20054;-69
2021/09/07 07:04:27;;;;;;;21.73;13.20;;;;;;;14.93;83.84;102421.78;10083972;28;20078;-69
2021/09/07 07:09:24;;;;;;;19.35;12.63;;;;;;;15.05;82.70;102415.75;10075299;28;20138;-70
2021/09/07 07:14:21;;;;;;;19.85;11.90;;;;;;;15.12;83.60;102434.63;10072811;28;20086;-69
2021/09/07 07:19:18;;;;;;;23.23;10.95;;;;;;;15.13;82.67;102439.00;10068897;28;20043;-69
2021/09/07 07:24:18;;;;;;;19.70;10.15;;;;;;;15.13;82.58;102431.56;10075557;28;20133;-69
2021/09/07 07:29:28;;;;;;;13.50;9.98;;;;;;;15.22;82.98;102431.63;10080168;28;20099;-69
2021/09/07 07:34:24;;;;;;;15.70;9.68;;;;;;;15.27;83.00;102434.31;10077387;28;20085;-70
2021/09/07 07:39:21;;;;;;;11.82;7.60;;;;;;;15.40;82.38;102440.91;10076990;28;20055;-70
2021/09/07 07:44:18;;;;;;;13.10;8.05;;;;;;;15.51;82.46;102430.50;10081760;28;20082;-69
2021/09/07 07:49:15;;;;;;;11.60;6.97;;;;;;;15.63;82.37;102435.47;10076346;28;20058;-69
2021/09/07 07:54:13;;;;;;;12.27;6.25;;;;;;;15.75;82.13;102436.56;10079597;28;20455;-70
2021/09/07 07:59:09;;;;;;;12.27;6.80;;;;;;;15.77;79.63;102437.06;10054923;28;20050;-70
2021/09/07 08:04:06;;;;;;;11.20;6.55;;;;;;;16.00;79.61;102439.88;10057831;28;20134;-69
2021/09/07 08:09:03;;;;;;;10.90;6.00;;;;;;;16.17;79.65;102439.97;10062023;28;20054;-70
2021/09/07 08:13:59;;;;;;;9.90;6.45;;;;;;;16.31;77.88;102444.63;10060441;28;20043;-70
2021/09/07 08:18:56;;;;;;;17.45;8.18;;;;;;;16.47;76.55;102453.31;10058844;28;20776;-70
2021/09/07 08:23:53;;;;;;;11.25;6.20;;;;;;;16.61;76.39;102465.09;10054452;28;20130;-70
2021/09/07 08:28:49;;;;;;;10.13;5.53;;;;;;;16.63;74.78;102463.66;10075410;28;20126;-70
2021/09/07 08:33:45;;;;;;;7.90;5.20;;;;;;;16.56;73.47;102468.81;10067846;28;20063;-69
2021/09/07 08:38:42;;;;;;;11.10;6.45;;;;;;;16.47;73.28;102464.38;10069317;28;20047;-70
2021/09/07 08:43:38;;;;;;;10.55;6.15;;;;;;;16.44;73.84;102465.81;10067751;28;20138;-70
2021/09/07 08:48:35;;;;;;;12.40;5.57;;;;;;;16.57;72.44;102459.41;10074517;28;20082;-69
2021/09/07 08:53:31;;;;;;;9.80;5.20;;;;;;;16.73;71.66;102456.22;10078469;28;20051;-70
2021/09/07 08:58:28;;;;;;;10.75;5.75;;;;;;;16.82;71.58;102462.63;10071061;28;20122;-71
2021/09/07 09:03:29;;;;;;;10.55;5.80;;;;;;;16.90;70.98;102466.59;10076341;28;20066;-70
2021/09/07 09:08:26;;;;;;;6.68;4.05;;;;;;;17.08;70.54;102461.91;10065963;28;20057;-70
2021/09/07 09:13:22;;;;;;;12.75;4.75;;;;;;;17.20;69.73;102462.16;10077661;28;20135;-69
2021/09/07 09:18:31;;;;;;;7.65;4.47;;;;;;;17.33;69.64;102461.19;10069478;28;20046;-70
2021/09/07 09:23:27;;;;;;;8.52;3.45;;;;;;;17.38;62.95;102450.00;10066610;28;20079;-70
2021/09/07 09:28:24;;;;;;;5.80;2.75;;;;;;;17.53;65.45;102439.59;10064927;28;20059;-70
2021/09/07 09:33:23;;;;;;;7.45;3.38;;;;;;;17.58;63.14;102447.75;10076933;28;20054;-70
2021/09/07 09:38:34;;;;;;;6.80;3.55;;;;;;;17.69;65.30;102449.06;10072855;28;20296;-70
2021/09/07 09:43:43;;;;;;;9.77;3.40;;;;;;;17.80;65.28;102444.84;10076849;28;20051;-70
2021/09/07 09:48:40;;;;;;;7.03;3.38;;;;;;;18.02;65.32;102440.28;10076432;28;20043;-70
2021/09/07 09:53:38;;;;;;;6.95;3.70;;;;;;;18.17;62.76;102437.03;10063004;28;20469;-70
2021/09/07 09:58:34;;;;;;;10.13;4.38;;;;;;;18.34;61.30;102451.97;10067183;28;20578;-69
2021/09/07 10:03:32;;;;;;;10.05;4.53;;;;;;;18.61;62.53;102440.50;10069555;28;20496;-69
2021/09/07 10:08:31;;;;;;;7.93;3.58;;;;;;;18.79;59.19;102437.69;10060730;28;20082;-70
2021/09/07 10:13:29;;;;;;;8.18;3.97;;;;;;;18.91;57.66;102437.78;10059188;28;20079;-70
2021/09/07 10:18:46;;;;;;;8.18;3.47;;;;;;;19.27;57.93;102434.50;10057722;28;20059;-70
2021/09/07 10:28:57;;;;;;;8.40;3.60;;;;;;;19.58;53.27;102429.72;10073642;28;20690;-69
2021/09/07 10:33:56;;;;;;;6.60;3.55;;;;;;;20.05;54.21;102429.50;10071749;28;20109;-69
2021/09/07 10:39:03;;;;;;;6.72;3.10;;;;;;;20.24;52.67;102432.59;10071746;28;20201;-69
2021/09/07 10:44:07;;;;;;;5.95;3.10;;;;;;;20.59;52.42;102421.13;10082424;28;20050;-70
2021/09/07 10:49:47;;;;;;;7.53;3.70;;;;;;;20.75;51.91;102410.97;10060006;28;20130;-70
2021/09/07 10:55:12;;;;;;;8.18;4.35;;;;;;;21.11;51.15;102409.31;10044857;28;20700;-70
2021/09/07 11:00:17;;;;;;;6.95;3.92;;;;;;;21.46;50.00;102408.81;10071309;28;20125;-71
2021/09/07 11:05:23;;;;;;;8.40;3.25;;;;;;;21.59;49.06;102407.63;10059571;28;20522;-70
2021/09/07 11:10:26;;;;;;;7.78;4.45;;;;;;;21.27;48.84;102411.41;10061695;28;20077;-70
2021/09/07 11:15:25;;;;;;;8.35;3.70;;;;;;;21.32;48.94;102402.81;10056527;28;20142;-71
2021/09/07 11:20:27;;;;;;;6.68;3.72;;;;;;;21.45;50.46;102407.22;10076933;28;20085;-71
2021/09/07 11:25:24;;;;;;;9.63;4.35;;;;;;;21.39;48.22;102403.00;10070645;28;20113;-71
2021/09/07 11:30:23;;;;;;;7.38;4.43;;;;;;;21.11;47.74;102400.97;10068189;28;20593;-70
2021/09/07 11:35:19;;;;;;;6.18;3.60;;;;;;;21.43;47.98;102399.22;10057975;28;20149;-69
2021/09/07 11:40:17;;;;;;;7.80;3.67;;;;;;;21.42;47.95;102392.03;10069133;28;20627;-69
2021/09/07 11:45:22;;;;;;;6.47;3.40;;;;;;;21.57;46.61;102387.69;10069359;28;20138;-69
2021/09/07 11:50:24;;;;;;;5.85;2.80;;;;;;;21.82;45.73;102393.97;10068915;28;20105;-69
2021/09/07 11:55:35;;;;;;;7.00;3.22;;;;;;;22.04;46.45;102375.88;10061603;28;20046;-69
2021/09/07 12:00:33;;;;;;;7.00;3.72;;;;;;;22.05;46.98;102380.28;10070298;28;20039;-68
2021/09/07 12:05:53;;;;;;;8.27;3.67;;;;;;;22.11;46.19;102380.03;10071391;28;20627;-69
2021/09/07 12:10:51;;;;;;;5.28;3.30;;;;;;;22.53;47.66;102371.19;10066113;28;20074;-68
2021/09/07 12:15:51;;;;;;;6.50;2.83;;;;;;;22.79;44.29;102374.25;10058796;28;20047;-69
2021/09/07 12:20:48;;;;;;;6.18;2.75;;;;;;;23.69;43.70;102374.22;10075570;28;20057;-70
2021/09/07 12:25:47;;;;;;;7.80;3.13;;;;;;;24.42;40.77;102373.63;10068355;28;20078;-68
2021/09/07 12:30:44;;;;;;;5.85;3.00;;;;;;;24.19;42.39;102373.59;10064499;28;20050;-68
2021/09/07 12:35:42;;;;;;;8.13;2.88;;;;;;;24.07;40.51;102363.41;10065600;28;20055;-67
2021/09/07 12:40:42;;;;;;;7.22;2.90;;;;;;;24.43;42.50;102364.84;10076213;28;21291;-68
2021/09/07 12:45:41;;;;;;;6.60;2.93;;;;;;;24.33;42.75;102362.69;10069195;28;20058;-67
2021/09/07 12:50:37;;;;;;;5.03;2.67;;;;;;;24.39;42.12;102363.97;10073481;28;20089;-67
2021/09/07 12:55:43;;;;;;;6.95;2.88;;;;;;;24.86;43.38;102365.56;10070673;28;20078;-66
2021/09/07 13:00:42;;;;;;;5.72;3.08;;;;;;;24.77;42.16;102351.03;10061378;28;20051;-66
2021/09/07 13:05:41;;;;;;;5.75;3.10;;;;;;;24.50;41.76;102353.81;10070716;28;20422;-67
2021/09/07 13:10:39;;;;;;;11.15;6.80;;;;;;;23.86;41.46;102358.25;10078512;28;20081;-66
2021/09/07 13:15:36;;;;;;;6.10;3.38;;;;;;;24.35;42.71;102341.56;10062218;28;20433;-66
2021/09/07 13:20:34;;;;;;;5.60;3.30;;;;;;;24.70;42.08;102328.56;10071058;28;20058;-65
2021/09/07 13:25:30;;;;;;;6.10;3.10;;;;;;;24.40;42.30;102334.84;10063930;28;20075;-66
2021/09/07 13:30:27;;;;;;;6.70;3.30;;;;;;;24.46;40.47;102329.72;10067301;28;20618;-67
2021/09/07 13:35:24;;;;;;;5.78;3.40;;;;;;;24.55;40.22;102322.75;10059682;28;20190;-67
2021/09/07 13:40:20;;;;;;;6.95;2.80;;;;;;;24.85;42.83;102319.16;10067579;28;20690;-66
2021/09/07 13:45:16;;;;;;;6.97;3.95;;;;;;;24.92;42.20;102321.25;10074189;28;20138;-67
2021/09/07 13:50:13;;;;;;;5.63;2.90;;;;;;;24.72;42.25;102309.41;10062209;28;20042;-66
2021/09/07 13:55:11;;;;;;;7.60;3.65;;;;;;;24.29;41.68;102308.69;10058244;28;20055;-66
2021/09/07 14:00:09;;;;;;;8.02;5.22;;;;;;;24.02;42.76;102305.88;10073360;28;20142;-66
2021/09/07 14:05:07;;;;;;;8.38;3.22;;;;;;;24.15;42.63;102310.06;10080683;28;20678;-67
2021/09/07 14:10:05;;;;;;;6.82;3.58;;;;;;;24.03;44.13;102306.66;10073914;28;20047;-67
2021/09/07 14:15:02;;;;;;;4.82;2.80;;;;;;;24.10;44.56;102304.78;10068344;28;20047;-68
2021/09/07 14:20:00;;;;;;;7.22;2.97;;;;;;;24.10;44.04;102302.00;10078008;28;20053;-66
2021/09/07 14:24:57;;;;;;;5.72;2.75;;;;;;;24.14;45.29;102291.69;10072876;28;20093;-65
2021/09/07 14:29:53;;;;;;;6.03;2.85;;;;;;;24.03;42.55;102307.47;10067888;28;20066;-66
2021/09/07 14:34:50;;;;;;;5.53;2.30;;;;;;;23.85;43.20;102297.97;10071780;28;20078;-66
2021/09/07 14:39:46;;;;;;;6.25;3.47;;;;;;;24.06;44.78;102289.94;10077859;28;20062;-67
2021/09/07 14:44:43;;;;;;;6.53;2.80;;;;;;;24.15;46.67;102292.50;10069347;28;20082;-66
2021/09/07 14:49:40;;;;;;;6.35;3.17;;;;;;;24.14;48.54;102286.09;10070968;28;20098;-68
2021/09/07 14:54:37;;;;;;;6.53;2.92;;;;;;;24.02;46.92;102289.09;10068622;28;20070;-66
2021/09/07 14:59:33;;;;;;;7.20;3.17;;;;;;;23.86;47.90;102285.63;10068489;28;20074;-67
2021/09/07 15:04:30;;;;;;;8.93;3.47;;;;;;;23.62;50.08;102287.53;10073184;28;20167;-69
2021/09/07 15:09:26;;;;;;;7.57;2.78;;;;;;;23.73;47.95;102279.38;10065402;28;21462;-66
2021/09/07 15:14:23;;;;;;;6.82;3.10;;;;;;;23.84;47.00;102271.22;10068238;28;20057;-69
2021/09/07 15:19:19;;;;;;;8.13;3.40;;;;;;;23.89;48.85;102268.13;10074029;28;20130;-69
2021/09/07 15:24:16;;;;;;;5.45;2.67;;;;;;;23.91;46.28;102271.34;10072335;28;20483;-67
2021/09/07 15:29:12;;;;;;;5.78;3.05;;;;;;;24.04;48.30;102275.53;10073458;28;20129;-70
2021/09/07 15:34:09;;;;;;;6.38;3.28;;;;;;;24.17;45.77;102262.19;10075367;28;20047;-67
2021/09/07 15:39:06;;;;;;;6.93;3.53;;;;;;;24.28;47.26;102262.38;10083144;28;20247;-69
2021/09/07 15:44:03;;;;;;;6.60;2.92;;;;;;;24.18;47.96;102263.78;10079868;28;20082;-68
2021/09/07 15:49:00;;;;;;;5.18;2.65;;;;;;;24.01;46.66;102250.34;10076157;28;20083;-68
2021/09/07 15:53:56;;;;;;;5.32;2.97;;;;;;;23.78;50.80;102250.34;10067060;28;20098;-68
2021/09/07 15:59:08;;;;;;;6.25;3.30;;;;;;;23.49;49.66;102238.66;10076373;28;20134;-67
2021/09/07 16:04:05;;;;;;;9.05;3.60;;;;;;;23.18;47.84;102246.00;10066059;28;20519;-68
2021/09/07 16:09:02;;;;;;;4.85;2.45;;;;;;;23.10;51.33;102244.25;10066293;28;20058;-69
2021/09/07 16:13:58;;;;;;;6.40;3.10;;;;;;;22.95;49.94;102239.50;10068987;28;20078;-68
2021/09/07 16:18:55;;;;;;;4.93;3.10;;;;;;;22.88;52.55;102243.78;10067055;28;20645;-68
2021/09/07 16:23:51;;;;;;;9.13;3.47;;;;;;;22.83;51.07;102235.69;10059497;28;20043;-68
2021/09/07 16:28:48;;;;;;;6.85;3.42;;;;;;;22.80;51.52;102239.22;10074048;28;20082;-67
2021/09/07 16:33:44;;;;;;;6.22;2.75;;;;;;;22.70;50.09;102242.59;10070146;28;20125;-67
2021/09/07 16:38:41;;;;;;;5.75;2.35;;;;;;;22.64;50.72;102238.47;10070411;28;20054;-67
2021/09/07 16:43:37;;;;;;;5.95;3.22;;;;;;;22.71;50.37;102233.03;10063941;28;20888;-68
2021/09/07 16:48:44;;;;;;;7.30;2.75;;;;;;;22.60;50.14;102226.41;10067451;28;20051;-68
2021/09/07 16:53:44;;;;;;;7.93;3.53;;;;;;;22.53;50.14;102215.09;10077341;28;20046;-69
2021/09/07 16:58:42;;;;;;;6.60;3.40;;;;;;;22.40;50.04;102209.66;10064541;28;20106;-70
2021/09/07 17:03:39;;;;;;;7.47;3.47;;;;;;;22.29;50.67;102205.81;10063523;28;20039;-69
2021/09/07 17:08:38;;;;;;;10.15;3.97;;;;;;;22.12;50.94;102209.78;10060293;28;20877;-70
2021/09/07 17:13:35;;;;;;;6.82;3.47;;;;;;;22.02;52.85;102213.91;10052120;28;20054;-69
2021/09/07 17:18:32;;;;;;;10.57;5.18;;;;;;;21.83;53.99;102202.69;10060135;28;20055;-70
2021/09/07 17:23:29;;;;;;;11.10;6.07;;;;;;;21.73;54.43;102204.03;10057774;28;20047;-69
2021/09/07 17:28:27;;;;;;;9.75;5.13;;;;;;;21.55;55.55;102200.78;10059888;28;20075;-69
2021/09/07 17:43:24;;;;;;;15.00;7.95;;;;;;;21.13;56.34;102195.63;10090384;28;20068;-70
2021/09/07 17:48:20;;;;;;;11.40;7.22;;;;;;;21.02;56.42;102191.75;10090969;28;20118;-70
2021/09/07 17:53:34;;;;;;;9.60;5.75;;;;;;;20.95;57.85;102199.88;10090768;28;20046;-69
2021/09/07 17:58:31;;;;;;;13.20;5.45;;;;;;;20.87;57.70;102200.84;10087271;28;20519;-68
2021/09/07 18:03:28;;;;;;;9.55;4.35;;;;;;;20.72;58.22;102205.97;10106654;28;20049;-70
2021/09/07 18:08:24;;;;;;;8.38;4.88;;;;;;;20.63;59.00;102216.41;10099912;28;20092;-70
2021/09/07 18:13:21;;;;;;;11.07;4.55;;;;;;;20.53;59.68;102211.31;10096002;28;20078;-70
2021/09/07 18:18:21;;;;;;;8.98;4.45;;;;;;;20.43;60.21;102211.81;10091897;28;20059;-70
2021/09/07 18:23:23;;;;;;;9.52;4.90;;;;;;;20.30;60.93;102217.34;10092316;28;20442;-70
2021/09/07 18:28:20;;;;;;;8.30;4.80;;;;;;;20.18;61.44;102226.50;10101819;28;20050;-70
2021/09/07 18:33:16;;;;;;;9.32;5.63;;;;;;;20.06;61.96;102225.69;10101532;28;20561;-70
2021/09/07 18:38:14;;;;;;;8.43;5.13;;;;;;;19.93;62.38;102222.09;10101111;28;20066;-69
2021/09/07 18:43:11;;;;;;;11.63;6.13;;;;;;;19.82;62.78;102216.19;10100707;28;20047;-69
2021/09/07 18:48:07;;;;;;;12.60;7.38;;;;;;;19.73;63.09;102226.59;10106879;28;20102;-71
2021/09/07 18:53:04;;;;;;;13.85;7.80;;;;;;;19.62;63.80;102233.69;10108716;28;20084;-69
2021/09/07 18:58:02;;;;;;;14.50;7.90;;;;;;;19.53;64.04;102234.59;10084999;28;20146;-70
2021/09/07 19:02:59;;;;;;;13.15;7.47;;;;;;;19.42;64.60;102235.34;10098683;28;20074;-70
2021/09/07 19:07:56;;;;;;;12.77;6.82;;;;;;;19.34;65.04;102245.41;10105216;28;20043;-70
2021/09/07 19:12:52;;;;;;;16.65;7.18;;;;;;;19.25;65.56;102236.34;10101559;28;20047;-69
2021/09/07 19:17:49;;;;;;;13.50;7.57;;;;;;;19.16;66.01;102238.38;10100600;28;20485;-69
2021/09/07 19:22:45;;;;;;;10.85;6.55;;;;;;;19.07;66.23;102242.03;10102188;28;20070;-70
2021/09/07 19:27:42;;;;;;;12.70;7.88;;;;;;;19.00;66.77;102247.31;10094547;28;20150;-70
2021/09/07 19:32:38;;;;;;;13.27;8.43;;;;;;;18.94;67.12;102245.91;10101954;28;20472;-69
2021/09/07 19:37:35;;;;;;;12.75;8.18;;;;;;;18.87;67.40;102248.41;10101756;28;20467;-70
2021/09/07 19:42:32;;;;;;;16.02;9.18;;;;;;;18.79;67.58;102246.50;10091707;28;20486;-69
2021/09/07 19:47:28;;;;;;;12.68;7.72;;;;;;;18.72;67.95;102242.25;10104844;28;20051;-69
2021/09/07 19:52:24;;;;;;;12.48;8.88;;;;;;;18.64;68.43;102239.56;10100838;28;20050;-69
2021/09/07 19:57:21;;;;;;;16.25;9.20;;;;;;;18.55;68.58;102241.59;10090014;28;20051;-70
2021/09/07 20:02:17;;;;;;;13.10;8.35;;;;;;;18.49;68.96;102244.53;10095948;28;20089;-71
2021/09/07 20:07:14;;;;;;;16.02;9.23;;;;;;;18.40;69.20;102241.00;10088089;28;20043;-70
2021/09/07 20:12:11;;;;;;;15.15;8.98;;;;;;;18.34;69.63;102241.53;10093942;28;20039;-70
2021/09/07 20:17:07;;;;;;;17.60;10.60;;;;;;;18.26;69.99;102235.72;10081761;28;20074;-70
2021/09/07 20:22:04;;;;;;;15.10;9.80;;;;;;;18.20;70.39;102245.34;10094523;28;20051;-68
2021/09/07 20:27:00;;;;;;;18.10;11.27;;;;;;;18.11;70.65;102244.56;10100273;28;20085;-68
2021/09/07 20:31:57;;;;;;;16.63;10.10;;;;;;;18.05;70.96;102232.84;10108259;28;20820;-68
2021/09/07 20:36:53;;;;;;;13.98;9.35;;;;;;;18.03;71.40;102237.94;10100584;28;20502;-68
2021/09/07 20:41:50;;;;;;;17.00;10.73;;;;;;;17.99;71.46;102241.69;10106589;28;20113;-68
2021/09/07 20:46:46;;;;;;;13.75;9.43;;;;;;;17.93;71.65;102237.47;10095455;28;20110;-70
2021/09/07 20:51:42;;;;;;;13.75;10.15;;;;;;;17.87;72.09;102237.66;10105879;28;20134;-68
2021/09/07 20:56:41;;;;;;;14.77;9.32;;;;;;;17.80;72.26;102231.81;10102252;28;20046;-68
2021/09/07 21:01:37;;;;;;;15.77;9.68;;;;;;;17.75;72.47;102228.38;10101712;28;20086;-71
2021/09/07 21:06:35;;;;;;;13.65;9.38;;;;;;;17.67;72.60;102227.28;10097693;28;20481;-67
2021/09/07 21:11:33;;;;;;;14.73;10.38;;;;;;;17.60;72.94;102229.75;10105493;28;20054;-68
2021/09/07 21:16:29;;;;;;;13.63;10.48;;;;;;;17.55;73.31;102227.16;10107618;28;20078;-71
2021/09/07 21:21:26;;;;;;;14.85;10.45;;;;;;;17.51;73.47;102226.19;10104833;28;20070;-69
2021/09/07 21:26:22;;;;;;;14.80;10.20;;;;;;;17.44;73.66;102233.00;10105852;28;20082;-69
2021/09/07 21:31:20;;;;;;;15.55;10.75;;;;;;;17.41;73.96;102222.63;10107666;28;20100;-70
2021/09/07 21:36:17;;;;;;;16.55;11.18;;;;;;;17.38;73.89;102215.00;10100708;28;20617;-69
2021/09/07 21:41:13;;;;;;;18.02;10.55;;;;;;;17.35;74.16;102212.88;10108292;28;20046;-69
2021/09/07 21:46:10;;;;;;;21.67;10.63;;;;;;;17.32;73.99;102210.75;10104876;28;20042;-69
2021/09/07 21:51:06;;;;;;;14.13;10.05;;;;;;;17.23;74.28;102210.75;10106789;28;20058;-69
2021/09/07 21:56:03;;;;;;;15.32;11.05;;;;;;;17.18;74.52;102201.84;10098058;28;20482;-69
2021/09/07 22:00:59;;;;;;;15.30;10.15;;;;;;;17.13;74.52;102210.31;10098154;28;20126;-69
2021/09/07 22:05:56;;;;;;;15.13;10.27;;;;;;;17.08;74.77;102210.44;10103062;28;20139;-70
2021/09/07 22:10:52;;;;;;;15.05;10.02;;;;;;;17.01;74.92;102203.47;10102816;28;20113;-70
2021/09/07 22:15:49;;;;;;;15.15;10.13;;;;;;;16.95;75.56;102202.00;10099389;28;20113;-71
2021/09/07 22:20:46;;;;;;;17.83;9.73;;;;;;;16.89;75.58;102217.13;10110259;28;20059;-71
2021/09/07 22:25:42;;;;;;;15.05;9.38;;;;;;;16.85;75.49;102209.78;10113595;28;20051;-71
2021/09/07 22:30:39;;;;;;;18.10;10.45;;;;;;;16.77;75.56;102203.09;10116319;28;20655;-71
2021/09/07 22:35:35;;;;;;;16.60;9.77;;;;;;;16.73;75.45;102202.97;10111264;28;20062;-70
2021/09/07 22:40:32;;;;;;;17.58;9.68;;;;;;;16.67;75.66;102204.25;10108920;28;20047;-67
2021/09/07 22:45:28;;;;;;;17.45;9.70;;;;;;;16.59;75.98;102208.63;10112208;28;20077;-71
2021/09/07 22:50:25;;;;;;;12.48;8.57;;;;;;;16.55;75.98;102209.59;10111101;28;20502;-71